This demonstration page uses our WeatherBlox Daily Observations layout. Learn more.

39.29038, -76.61219

Hourly Observations for April 15, 2016

Temp ( °F °C ) Dew Point ( °F °C ) Humidity (%) Winds ( mph kmh ) Pressure ( in mb ) Visibility ( mi km ) Precip ( " mm )
12:54 am 00:54 undefined 50 10 38 3.3 63 63 undefined N/A 30.37 1028 N/A 0 0
1:54 am 01:54 undefined 50 10 36 2.2 59 59 undefined N/A 30.36 1028 N/A 0 0
2:54 am 02:54 undefined 49 9.4 37 2.8 64 64 undefined N/A 30.35 1028 N/A 0 0
3:54 am 03:54 undefined 48 8.9 36 2.2 63 63 undefined N/A 30.35 1028 N/A 0 0
4:54 am 04:54 undefined 47 8.3 36 2.2 66 66 undefined N/A 30.36 1028 N/A 0 0
5:54 am 05:54 undefined 46 7.8 37 2.8 71 71 undefined N/A 30.38 1029 N/A 0 0
6:54 am 06:54 undefined 45 7.2 36 2.2 71 71 undefined N/A 30.41 1030 N/A 0 0
7:54 am 07:54 undefined 48 8.9 37 2.8 66 66 undefined N/A 30.43 1031 N/A 0 0
8:54 am 08:54 undefined 51 10.6 37 2.8 59 59 undefined N/A 30.45 1031 N/A 0 0
9:54 am 09:54 undefined 52 11.1 35 1.7 53 53 undefined N/A 30.45 1031 N/A 0 0
10:54 am 10:54 undefined 54 12.2 30 -1.1 40 40 undefined N/A 30.46 1032 N/A 0 0
11:54 am 11:54 undefined 56 13.3 27 -2.8 33 33 undefined N/A 30.46 1031 N/A 0 0
12:54 pm 12:54 undefined 57 13.9 27 -2.8 32 32 undefined N/A 30.45 1031 N/A 0 0
1:54 pm 13:54 undefined 59 15 31 -0.6 35 35 undefined N/A 30.44 1031 N/A 0 0
3:54 pm 15:54 undefined 61 16.1 31 -0.6 32 32 undefined N/A 30.4 1030 N/A 0 0
4:54 pm 16:54 undefined 62 16.7 31 -0.6 31 31 undefined N/A 30.4 1029 N/A 0 0
5:54 pm 17:54 undefined 60 15.6 29 -1.7 31 31 undefined N/A 30.4 1029 N/A 0 0
6:54 pm 18:54 undefined 59 15 30 -1.1 33 33 undefined N/A 30.39 1029 N/A 0 0
7:54 pm 19:54 undefined 58 14.4 31 -0.6 36 36 undefined N/A 30.39 1029 N/A 0 0
8:54 pm 20:54 undefined 58 14.4 31 -0.6 36 36 undefined N/A 30.4 1030 N/A 0 0
9:54 pm 21:54 undefined 57 13.9 31 -0.6 37 37 undefined N/A 30.41 1030 N/A 0 0
10:54 pm 22:54 undefined 56 13.3 31 -0.6 39 39 undefined N/A 30.41 1030 N/A 0 0
11:54 pm 23:54 undefined 54 12.2 33 0.6 45 45 undefined N/A 30.41 1030 N/A 0 0

Powered by AerisWeather